Time;durP1;ratioP1;P1;durP2;ratioP2;P2;SDS_P1;SDS_P2;PMS_P1;PMS_P2;Temp;Humidity;BMP_temperature;BMP_pressure;BME280_temperature;BME280_humidity;BME280_pressure;Samples;Min_cycle;Max_cycle;Signal;HPM_P1;HPM_P2
2023/08/03 00:00:32;;;;;;;0.70;0.55;;;18.90;99.90;19.20;98693.00;;;;4991470;27;117788;-65
2023/08/03 00:02:58;;;;;;;0.68;0.50;;;19.00;99.90;19.30;98705.00;;;;4993186;27;88846;-66
2023/08/03 00:05:24;;;;;;;1.38;0.75;;;19.10;99.90;19.30;98694.00;;;;4991568;27;87671;-66
2023/08/03 00:08:02;;;;;;;0.30;0.30;;;19.20;99.90;19.40;98717.00;;;;4993971;27;87543;-67
2023/08/03 00:10:31;;;;;;;0.43;0.43;;;19.00;99.90;19.40;98710.00;;;;4994218;27;118691;-66
2023/08/03 00:12:57;;;;;;;1.20;0.70;;;19.20;99.90;19.40;98710.00;;;;4989878;27;87884;-67
2023/08/03 00:15:23;;;;;;;0.28;0.28;;;19.20;99.90;19.50;98725.00;;;;4992318;27;109570;-67
2023/08/03 00:17:48;;;;;;;1.15;0.57;;;19.30;99.90;19.50;98720.00;;;;4992974;27;87604;-66
2023/08/03 00:20:15;;;;;;;0.82;0.82;;;19.30;99.90;19.60;98729.00;;;;4989260;27;95021;-67
2023/08/03 00:22:45;;;;;;;1.80;0.80;;;19.40;99.90;19.60;98728.00;;;;4993144;27;89261;-66
2023/08/03 00:25:11;;;;;;;0.80;0.80;;;19.40;99.90;19.60;98733.00;;;;4991946;27;88118;-66
2023/08/03 00:27:37;;;;;;;0.90;0.70;;;19.50;99.90;19.70;98732.00;;;;4991237;27;101374;-67
2023/08/03 00:30:03;;;;;;;1.30;0.93;;;19.50;99.90;19.70;98752.00;;;;4994046;27;118568;-66
2023/08/03 00:32:28;;;;;;;1.23;0.63;;;19.50;99.90;19.70;98744.00;;;;4998231;27;88628;-65
2023/08/03 00:34:54;;;;;;;1.17;0.30;;;19.50;99.90;19.60;98744.00;;;;4999015;27;87631;-66
2023/08/03 00:37:20;;;;;;;0.63;0.60;;;19.50;99.90;19.60;98752.00;;;;4996343;27;87836;-65
2023/08/03 00:39:46;;;;;;;0.52;0.52;;;19.50;99.90;19.60;98756.00;;;;4994287;27;89126;-67
2023/08/03 00:42:11;;;;;;;0.52;0.52;;;19.50;99.90;19.60;98748.00;;;;4995520;27;113710;-67
2023/08/03 00:44:37;;;;;;;2.15;0.73;;;19.40;99.90;19.60;98768.00;;;;4996151;27;86670;-65
2023/08/03 00:47:03;;;;;;;0.82;0.40;;;19.30;99.90;19.50;98765.00;;;;4990613;27;107146;-65
2023/08/03 00:49:29;;;;;;;0.70;0.30;;;19.40;99.90;19.50;98772.00;;;;4999159;27;102018;-65
2023/08/03 00:51:56;;;;;;;0.98;0.82;;;19.40;99.90;19.50;98774.00;;;;4991646;27;116392;-64
2023/08/03 00:54:22;;;;;;;6.75;0.73;;;19.30;99.90;19.40;98784.00;;;;4996310;27;101639;-65
2023/08/03 00:56:47;;;;;;;3.55;1.15;;;19.30;99.90;19.40;98776.00;;;;4993486;27;97710;-64
2023/08/03 00:59:14;;;;;;;0.63;0.63;;;19.30;99.90;19.40;98778.00;;;;4995817;27;88289;-66
2023/08/03 01:01:41;;;;;;;0.63;0.52;;;19.30;99.90;19.40;98778.00;;;;4992556;27;118348;-66
2023/08/03 01:04:07;;;;;;;0.52;0.47;;;19.30;99.90;19.40;98778.00;;;;5001817;27;87756;-65
2023/08/03 01:06:33;;;;;;;0.60;0.60;;;19.30;99.90;19.40;98783.00;;;;4998150;27;100639;-65
2023/08/03 01:09:00;;;;;;;1.20;0.60;;;19.20;99.90;19.30;98788.00;;;;4996429;27;88101;-65
2023/08/03 01:11:28;;;;;;;0.88;0.30;;;19.20;99.90;19.30;98797.00;;;;4993262;27;87981;-66
2023/08/03 01:13:54;;;;;;;3.85;0.98;;;19.10;99.90;19.30;98791.00;;;;4997914;27;87715;-65
2023/08/03 01:16:20;;;;;;;1.27;0.77;;;19.10;99.90;19.20;98796.00;;;;4994137;27;100962;-64
2023/08/03 01:18:46;;;;;;;1.55;0.93;;;19.10;99.90;19.10;98791.00;;;;4993309;27;109615;-65
2023/08/03 01:21:14;;;;;;;2.78;0.60;;;19.00;99.90;19.10;98786.00;;;;4994514;27;118269;-65
2023/08/03 01:23:40;;;;;;;0.35;0.35;;;19.00;99.90;19.00;98796.00;;;;4996980;27;87868;-65
2023/08/03 01:26:05;;;;;;;0.45;0.45;;;18.90;99.90;19.00;98784.00;;;;4994477;27;109806;-65
2023/08/03 01:28:31;;;;;;;1.25;0.60;;;18.80;99.90;18.90;98796.00;;;;4992881;27;116760;-66
2023/08/03 01:30:57;;;;;;;1.35;0.43;;;19.20;99.90;18.90;98801.00;;;;4994369;27;116872;-65
2023/08/03 01:33:23;;;;;;;0.55;0.55;;;18.80;99.90;18.90;98792.00;;;;4990323;27;109641;-64
2023/08/03 01:35:50;;;;;;;0.35;0.35;;;18.70;99.90;18.80;98794.00;;;;4990312;27;111447;-66
2023/08/03 01:38:16;;;;;;;1.05;0.70;;;18.70;99.90;18.80;98781.00;;;;4991588;27;95584;-65
2023/08/03 01:40:42;;;;;;;0.50;0.40;;;18.70;99.90;18.80;98785.00;;;;4976160;27;105662;-65
2023/08/03 01:43:08;;;;;;;0.98;0.63;;;18.60;99.90;18.80;98785.00;;;;4994992;27;87711;-66
2023/08/03 01:45:34;;;;;;;0.75;0.52;;;18.60;99.90;18.80;98780.00;;;;4994676;27;87506;-65
2023/08/03 01:47:59;;;;;;;1.50;0.50;;;18.60;99.90;18.80;98787.00;;;;4996281;27;88511;-65
2023/08/03 01:50:25;;;;;;;0.40;0.40;;;18.60;99.90;18.80;98785.00;;;;4992476;27;116126;-65
2023/08/03 01:52:51;;;;;;;3.92;0.77;;;18.60;99.90;18.80;98785.00;;;;4993801;27;109288;-65
2023/08/03 01:55:16;;;;;;;0.98;0.75;;;18.60;99.90;18.80;98788.00;;;;4997100;27;107770;-66
2023/08/03 01:57:42;;;;;;;0.70;0.63;;;18.70;99.90;18.90;98776.00;;;;4994899;27;106769;-65
2023/08/03 02:00:08;;;;;;;0.57;0.57;;;18.70;99.90;18.90;98776.00;;;;4988581;27;115310;-66
2023/08/03 02:02:33;;;;;;;1.10;1.00;;;18.70;99.90;18.90;98776.00;;;;4992129;27;96937;-66
2023/08/03 02:04:59;;;;;;;0.95;0.82;;;18.70;99.90;18.90;98775.00;;;;4993362;27;109004;-66
2023/08/03 02:07:46;;;;;;;1.85;0.82;;;18.70;99.90;18.90;98780.00;;;;4991560;27;117555;-66
2023/08/03 02:10:14;;;;;;;1.00;0.90;;;18.80;99.90;18.90;98776.00;;;;4991545;27;88945;-65
2023/08/03 02:12:40;;;;;;;1.38;0.82;;;18.70;99.90;18.90;98769.00;;;;4994141;27;87851;-65
2023/08/03 02:15:06;;;;;;;1.15;0.90;;;18.80;99.90;18.90;98762.00;;;;4992114;27;87485;-66
2023/08/03 02:17:33;;;;;;;2.10;1.25;;;18.80;99.90;18.90;98771.00;;;;4990786;27;110127;-67
2023/08/03 02:19:59;;;;;;;0.85;0.68;;;18.80;99.90;18.90;98770.00;;;;4993455;27;88454;-65
2023/08/03 02:22:25;;;;;;;0.43;0.28;;;18.80;99.90;18.90;98769.00;;;;4996018;27;87085;-66
2023/08/03 02:24:51;;;;;;;1.10;0.65;;;18.70;99.90;18.90;98767.00;;;;4991688;27;108935;-65
2023/08/03 02:27:16;;;;;;;0.40;0.20;;;18.80;99.90;18.90;98770.00;;;;4992225;27;108670;-65
2023/08/03 02:29:42;;;;;;;0.50;0.50;;;18.70;99.90;18.90;98773.00;;;;4990891;27;116489;-66
2023/08/03 02:32:08;;;;;;;0.50;0.50;;;18.70;99.90;18.90;98762.00;;;;4993252;27;87661;-63
2023/08/03 02:34:33;;;;;;;0.28;0.28;;;18.60;99.90;18.80;98771.00;;;;4990401;27;109401;-62
2023/08/03 02:36:59;;;;;;;2.78;0.47;;;18.70;99.90;18.80;98768.00;;;;4992656;27;118409;-65
2023/08/03 02:39:25;;;;;;;0.63;0.38;;;18.70;99.90;18.80;98763.00;;;;4989937;27;114761;-62
2023/08/03 02:41:52;;;;;;;0.30;0.30;;;18.60;99.90;18.80;98767.00;;;;4988445;27;111855;-64
2023/08/03 02:44:18;;;;;;;1.35;0.73;;;18.60;99.90;18.80;98764.00;;;;4991164;27;87737;-64
2023/08/03 02:46:44;;;;;;;0.38;0.38;;;18.60;99.90;18.70;98772.00;;;;4994261;27;96108;-64
2023/08/03 02:49:09;;;;;;;0.40;0.35;;;18.60;99.90;18.80;98769.00;;;;4989421;27;97831;-64
2023/08/03 02:51:35;;;;;;;2.83;1.17;;;18.60;99.90;18.80;98768.00;;;;4992953;27;110316;-64
2023/08/03 02:54:01;;;;;;;2.38;0.90;;;18.60;99.90;18.80;98780.00;;;;4991352;27;109834;-64
2023/08/03 02:56:26;;;;;;;1.77;1.15;;;18.60;99.90;18.80;98779.00;;;;4991634;27;118087;-64
2023/08/03 02:58:52;;;;;;;1.25;0.60;;;18.60;99.90;18.70;98778.00;;;;4993963;27;115489;-64
2023/08/03 03:01:19;;;;;;;0.52;0.40;;;18.60;99.90;18.70;98784.00;;;;4992880;27;87382;-63
2023/08/03 03:03:45;;;;;;;1.40;0.55;;;18.60;99.90;18.70;98788.00;;;;4993102;27;87861;-64
2023/08/03 03:06:11;;;;;;;0.68;0.52;;;18.60;99.90;18.70;98794.00;;;;4992745;27;117360;-64
2023/08/03 03:08:36;;;;;;;0.77;0.43;;;18.60;99.90;18.80;98786.00;;;;4989423;27;117157;-64
2023/08/03 03:11:02;;;;;;;3.42;0.50;;;18.60;99.90;18.80;98802.00;;;;4994452;27;111606;-64
2023/08/03 03:13:27;;;;;;;1.55;0.57;;;18.60;99.90;18.70;98797.00;;;;4993961;27;108782;-64
2023/08/03 03:15:56;;;;;;;5.43;0.60;;;18.60;99.90;18.70;98801.00;;;;4990978;27;102779;-64
2023/08/03 03:18:22;;;;;;;0.70;0.50;;;18.60;99.90;18.70;98793.00;;;;4990810;27;116272;-64
2023/08/03 03:20:47;;;;;;;1.13;0.57;;;18.60;99.90;18.70;98794.00;;;;4989744;27;110162;-65
2023/08/03 03:23:13;;;;;;;5.15;0.88;;;18.60;99.90;18.70;98801.00;;;;4991578;27;108983;-64
2023/08/03 03:25:39;;;;;;;1.00;0.57;;;18.60;99.90;18.70;98802.00;;;;4991128;27;88543;-64
2023/08/03 03:28:07;;;;;;;2.03;0.57;;;18.60;99.90;18.70;98799.00;;;;4987767;28;87844;-65
2023/08/03 03:30:33;;;;;;;1.52;0.57;;;18.60;99.90;18.80;98806.00;;;;4994433;27;87564;-65
2023/08/03 03:32:59;;;;;;;1.38;0.50;;;18.60;99.90;18.80;98802.00;;;;4990824;27;106488;-64
2023/08/03 03:35:25;;;;;;;0.35;0.30;;;18.60;99.90;18.80;98806.00;;;;4991184;27;86979;-65
2023/08/03 03:37:51;;;;;;;0.52;0.45;;;18.60;99.90;18.90;98802.00;;;;4991967;27;87760;-64
2023/08/03 03:40:17;;;;;;;0.77;0.70;;;18.50;99.90;18.90;98810.00;;;;4991715;27;110992;-65
2023/08/03 03:42:42;;;;;;;2.45;0.85;;;18.80;99.90;19.00;98792.00;;;;4992870;27;107229;-66
2023/08/03 03:45:08;;;;;;;0.35;0.30;;;18.80;99.90;19.00;98811.00;;;;4993468;27;117002;-65
2023/08/03 03:47:34;;;;;;;2.13;0.35;;;18.80;99.90;19.10;98806.00;;;;4992429;27;87924;-65
2023/08/03 03:50:00;;;;;;;0.70;0.70;;;18.90;99.90;19.10;98822.00;;;;4991346;27;109757;-65
2023/08/03 03:52:25;;;;;;;3.05;1.13;;;18.90;99.90;19.20;98815.00;;;;4993615;27;91046;-65
2023/08/03 03:54:51;;;;;;;0.40;0.40;;;19.00;99.90;19.20;98826.00;;;;4991960;27;116956;-66
2023/08/03 03:57:17;;;;;;;1.48;0.63;;;19.10;99.90;19.30;98818.00;;;;4992956;27;114857;-65
2023/08/03 03:59:43;;;;;;;1.88;0.52;;;19.10;99.90;19.30;98823.00;;;;4991094;27;86805;-65
2023/08/03 04:02:08;;;;;;;0.60;0.60;;;19.10;99.90;19.40;98823.00;;;;4996253;28;108512;-65
2023/08/03 04:04:34;;;;;;;1.55;0.65;;;19.20;99.90;19.40;98799.00;;;;5004837;27;116632;-64
2023/08/03 04:07:00;;;;;;;1.55;1.08;;;19.20;99.90;19.40;98818.00;;;;4988524;27;114667;-64
2023/08/03 04:09:25;;;;;;;3.80;0.88;;;19.20;99.90;19.40;98817.00;;;;4986788;27;111674;-65
2023/08/03 04:11:51;;;;;;;0.82;0.28;;;19.30;99.90;19.50;98816.00;;;;4985797;27;108405;-66
2023/08/03 04:14:17;;;;;;;2.47;0.60;;;19.30;99.90;19.50;98817.00;;;;4990812;27;117081;-66
2023/08/03 04:16:42;;;;;;;0.95;0.73;;;19.70;99.90;19.50;98816.00;;;;4993535;27;96799;-64
2023/08/03 04:19:08;;;;;;;0.65;0.65;;;19.30;99.90;19.50;98808.00;;;;4988370;27;109496;-65
2023/08/03 04:21:34;;;;;;;1.35;0.80;;;19.30;99.90;19.50;98813.00;;;;4990779;27;107117;-65
2023/08/03 04:23:59;;;;;;;0.47;0.40;;;19.30;99.90;19.50;98814.00;;;;4990158;27;116615;-65
2023/08/03 04:26:25;;;;;;;1.15;0.85;;;19.30;99.90;19.50;98813.00;;;;4992454;27;116323;-65
2023/08/03 04:28:51;;;;;;;0.77;0.70;;;19.30;99.90;19.50;98814.00;;;;4992617;27;108256;-64
2023/08/03 04:31:16;;;;;;;2.45;0.73;;;19.30;99.90;19.50;98821.00;;;;4990909;27;109497;-64
2023/08/03 04:33:42;;;;;;;1.35;0.57;;;19.30;99.90;19.40;98822.00;;;;4990687;27;88086;-63
2023/08/03 04:36:08;;;;;;;5.35;0.60;;;19.30;99.90;19.40;98821.00;;;;4989803;27;115777;-64
2023/08/03 04:38:34;;;;;;;3.75;1.23;;;19.30;99.90;19.40;98832.00;;;;4989779;27;109508;-64
2023/08/03 04:41:01;;;;;;;3.78;0.73;;;19.20;99.90;19.40;98824.00;;;;4985227;27;108974;-63
2023/08/03 04:43:27;;;;;;;4.10;0.70;;;19.20;99.90;19.40;98817.00;;;;4989010;27;89313;-63
2023/08/03 04:45:54;;;;;;;0.85;0.40;;;19.30;99.90;19.40;98818.00;;;;4993450;27;87813;-64
2023/08/03 04:48:20;;;;;;;1.40;0.70;;;19.30;99.90;19.50;98820.00;;;;4991859;27;86979;-64
2023/08/03 04:50:45;;;;;;;2.92;0.63;;;19.30;99.90;19.50;98827.00;;;;4991596;27;93422;-63
2023/08/03 04:53:11;;;;;;;0.38;0.25;;;19.30;99.90;19.60;98837.00;;;;4989391;27;95740;-64
2023/08/03 04:55:37;;;;;;;4.97;0.82;;;19.30;99.90;19.70;98829.00;;;;4989726;27;116986;-65
2023/08/03 04:58:02;;;;;;;1.98;0.50;;;19.50;99.90;19.80;98818.00;;;;4991836;27;87480;-65
2023/08/03 05:00:28;;;;;;;2.95;0.60;;;19.60;99.90;19.90;98814.00;;;;4990419;27;108879;-65
2023/08/03 05:02:54;;;;;;;1.45;1.17;;;19.70;99.90;20.10;98817.00;;;;4987696;27;117382;-64
2023/08/03 05:05:19;;;;;;;5.07;0.85;;;19.80;99.90;20.20;98822.00;;;;4991266;27;118667;-65
2023/08/03 05:07:45;;;;;;;3.45;0.98;;;19.90;99.90;20.30;98826.00;;;;4989958;27;109444;-65
2023/08/03 05:10:11;;;;;;;2.97;0.50;;;20.10;99.90;20.40;98826.00;;;;4989243;27;109375;-65
2023/08/03 05:12:39;;;;;;;5.57;1.33;;;20.20;99.90;20.40;98832.00;;;;4984348;27;117416;-65
2023/08/03 05:15:05;;;;;;;5.32;0.80;;;20.20;99.90;20.50;98836.00;;;;4989582;27;87515;-65
2023/08/03 05:17:31;;;;;;;0.57;0.57;;;20.30;99.90;20.50;98826.00;;;;4987511;27;101795;-64
2023/08/03 05:19:57;;;;;;;2.75;0.63;;;20.30;99.90;20.60;98822.00;;;;4988937;27;108226;-63
2023/08/03 05:22:22;;;;;;;0.60;0.60;;;20.30;99.90;20.70;98825.00;;;;4987416;27;89387;-64
2023/08/03 05:24:57;;;;;;;1.27;0.43;;;20.50;99.90;20.80;98833.00;;;;4990436;27;117148;-63
2023/08/03 05:27:23;;;;;;;1.40;0.38;;;20.60;99.90;20.90;98838.00;;;;4991961;27;108713;-65
2023/08/03 05:29:49;;;;;;;0.20;0.15;;;20.60;99.90;20.90;98840.00;;;;4993627;27;109527;-64
2023/08/03 05:32:18;;;;;;;0.90;0.55;;;20.70;99.60;21.00;98835.00;;;;4992287;27;88423;-63
2023/08/03 05:34:43;;;;;;;7.47;1.00;;;20.80;99.30;21.00;98843.00;;;;4990207;27;88105;-64
2023/08/03 05:37:09;;;;;;;2.50;0.50;;;20.80;99.30;21.10;98834.00;;;;4988345;27;109498;-64
2023/08/03 05:39:35;;;;;;;1.45;0.63;;;20.90;98.70;21.20;98832.00;;;;4985953;27;108665;-65
2023/08/03 05:42:01;;;;;;;0.85;0.40;;;20.90;98.50;21.30;98833.00;;;;4989798;27;118021;-64
2023/08/03 05:44:27;;;;;;;2.38;1.08;;;21.10;97.90;21.40;98834.00;;;;4990360;27;88555;-64
2023/08/03 05:46:53;;;;;;;0.95;0.55;;;21.10;97.40;21.50;98846.00;;;;4991342;27;92207;-63
2023/08/03 05:49:19;;;;;;;0.47;0.35;;;21.30;97.00;21.60;98835.00;;;;4989528;27;109674;-65
2023/08/03 05:51:44;;;;;;;1.23;0.93;;;22.30;97.20;21.70;98835.00;;;;4987839;27;118909;-64
2023/08/03 05:54:16;;;;;;;1.08;0.60;;;21.40;96.50;21.80;98835.00;;;;4989620;27;116551;-63
2023/08/03 05:56:42;;;;;;;1.75;1.05;;;21.50;96.10;21.80;98837.00;;;;4994353;27;87382;-64
2023/08/03 05:59:22;;;;;;;1.85;0.30;;;21.50;95.70;21.90;98834.00;;;;4988182;27;89764;-63
2023/08/03 06:01:51;;;;;;;0.57;0.50;;;21.70;95.30;22.00;98842.00;;;;4992438;27;87011;-63
2023/08/03 06:04:17;;;;;;;2.65;0.93;;;21.80;95.00;22.10;98845.00;;;;4989848;27;87525;-64
2023/08/03 06:06:46;;;;;;;1.30;0.68;;;21.90;94.10;22.10;98851.00;;;;4989148;27;88188;-63
2023/08/03 06:09:13;;;;;;;1.42;0.43;;;21.90;93.80;22.10;98840.00;;;;4991125;27;88485;-65
2023/08/03 06:11:39;;;;;;;1.05;0.40;;;21.90;93.60;22.20;98838.00;;;;4987813;27;89282;-65
2023/08/03 06:14:10;;;;;;;0.40;0.40;;;22.00;93.40;22.20;98844.00;;;;4988139;27;96533;-62
2023/08/03 06:16:36;;;;;;;3.55;0.47;;;22.00;93.20;22.20;98842.00;;;;4992560;27;87763;-63
2023/08/03 06:19:05;;;;;;;1.88;0.25;;;22.00;93.20;22.30;98832.00;;;;4992395;27;98389;-63
2023/08/03 06:21:30;;;;;;;2.05;0.77;;;22.10;93.00;22.30;98841.00;;;;4991930;27;87850;-63
2023/08/03 06:23:58;;;;;;;1.42;0.93;;;22.10;92.80;22.40;98827.00;;;;4990453;27;118015;-63
2023/08/03 06:26:27;;;;;;;1.42;0.50;;;22.20;92.40;22.40;98842.00;;;;4995376;27;87000;-64
2023/08/03 06:28:54;;;;;;;1.20;0.55;;;22.20;92.60;22.50;98851.00;;;;4991197;27;87957;-64
2023/08/03 06:31:24;;;;;;;0.73;0.45;;;22.30;92.20;22.60;98824.00;;;;4991859;27;87663;-66
2023/08/03 06:33:50;;;;;;;0.55;0.55;;;22.40;91.80;22.60;98843.00;;;;4988227;27;88766;-65
2023/08/03 06:36:23;;;;;;;0.60;0.40;;;22.40;91.30;22.50;98843.00;;;;4988469;27;87547;-63
2023/08/03 06:38:48;;;;;;;3.67;0.60;;;22.40;91.40;22.50;98838.00;;;;4988813;27;90325;-63
2023/08/03 06:41:46;;;;;;;1.27;0.98;;;22.30;91.20;22.40;98852.00;;;;4986838;27;117486;-64
2023/08/03 06:44:12;;;;;;;0.63;0.55;;;22.30;91.20;22.40;98867.00;;;;4985300;27;116555;-64
2023/08/03 06:46:37;;;;;;;2.45;0.80;;;22.20;90.80;22.40;98851.00;;;;4987948;27;111594;-63
2023/08/03 06:49:03;;;;;;;1.65;0.60;;;22.20;90.50;22.40;98851.00;;;;4991008;27;108466;-64
2023/08/03 06:51:29;;;;;;;2.30;0.65;;;22.20;90.20;22.40;98844.00;;;;4987508;27;115552;-64
2023/08/03 06:53:55;;;;;;;1.05;0.30;;;22.20;89.80;22.50;98869.00;;;;4986201;27;109296;-64
2023/08/03 06:56:21;;;;;;;0.77;0.70;;;22.20;90.20;22.70;98852.00;;;;4985196;27;109297;-63
2023/08/03 06:58:46;;;;;;;1.13;0.20;;;22.40;90.00;22.90;98872.00;;;;4987012;27;107509;-64
2023/08/03 07:01:12;;;;;;;1.27;0.77;;;22.50;89.20;23.00;98885.00;;;;4992626;27;117561;-63
2023/08/03 07:03:38;;;;;;;3.35;1.02;;;22.70;88.50;23.20;98878.00;;;;4996317;27;118163;-64
2023/08/03 07:06:04;;;;;;;2.90;1.02;;;22.90;88.30;23.30;98880.00;;;;4989462;27;99574;-64
2023/08/03 07:08:30;;;;;;;0.40;0.40;;;23.00;86.80;23.30;98889.00;;;;4977109;27;87710;-65
2023/08/03 07:10:55;;;;;;;0.40;0.30;;;23.10;85.60;23.30;98893.00;;;;4990021;27;116433;-64
2023/08/03 07:13:21;;;;;;;0.30;0.30;;;23.10;84.60;23.10;98883.00;;;;4990847;27;117493;-64
2023/08/03 07:15:47;;;;;;;1.13;0.45;;;23.00;85.10;23.00;98898.00;;;;4988566;27;109813;-65
2023/08/03 07:18:12;;;;;;;2.17;0.50;;;22.90;84.30;22.90;98886.00;;;;4988519;27;108484;-63
2023/08/03 07:20:38;;;;;;;1.48;0.35;;;22.80;84.00;22.80;98904.00;;;;4990141;27;117206;-63
2023/08/03 07:23:07;;;;;;;0.25;0.25;;;22.80;84.50;22.80;98887.00;;;;4988171;27;107543;-63
2023/08/03 07:25:33;;;;;;;1.00;0.47;;;22.60;85.70;22.80;98899.00;;;;4990459;27;87347;-63
2023/08/03 07:27:59;;;;;;;0.40;0.40;;;22.60;86.30;22.80;98901.00;;;;4989817;27;87642;-64
2023/08/03 07:30:25;;;;;;;2.83;0.52;;;22.60;87.10;22.80;98917.00;;;;4989537;27;88328;-63
2023/08/03 07:32:51;;;;;;;0.30;0.30;;;22.60;86.80;22.80;98931.00;;;;4988337;27;111049;-64
2023/08/03 07:35:17;;;;;;;1.08;0.98;;;22.60;86.10;22.80;98936.00;;;;4988251;27;88283;-65
2023/08/03 07:37:43;;;;;;;1.10;0.25;;;22.60;86.10;22.80;98935.00;;;;4991529;27;98078;-64
2023/08/03 07:40:09;;;;;;;0.82;0.47;;;22.60;86.10;22.80;98933.00;;;;4990816;27;117452;-64
2023/08/03 07:42:35;;;;;;;0.35;0.30;;;22.60;85.60;22.70;98944.00;;;;4987976;28;88220;-64
2023/08/03 07:45:01;;;;;;;1.90;0.47;;;22.50;85.00;22.60;98950.00;;;;4970622;28;87590;-64
2023/08/03 07:47:27;;;;;;;0.80;0.40;;;22.50;84.80;22.60;98947.00;;;;4990421;27;88848;-64
2023/08/03 07:49:55;;;;;;;32.60;0.90;;;22.50;84.90;22.70;98954.00;;;;4994943;27;87704;-63
2023/08/03 07:52:21;;;;;;;0.68;0.30;;;22.50;85.00;22.80;98955.00;;;;4985253;27;88736;-63
2023/08/03 07:54:47;;;;;;;1.17;0.40;;;22.50;84.20;22.90;98957.00;;;;4989240;27;87913;-63
2023/08/03 07:57:15;;;;;;;0.47;0.30;;;22.60;83.60;23.00;98951.00;;;;4985450;27;107668;-63
2023/08/03 07:59:42;;;;;;;0.30;0.30;;;22.70;83.20;23.20;98957.00;;;;4988098;27;88919;-64
2023/08/03 08:02:08;;;;;;;1.95;0.47;;;22.80;84.00;23.40;98953.00;;;;4989163;27;92174;-63
2023/08/03 08:04:33;;;;;;;1.65;0.45;;;23.00;84.10;23.70;98961.00;;;;4987392;27;109416;-63
2023/08/03 08:06:59;;;;;;;0.43;0.40;;;23.30;81.90;23.80;98965.00;;;;4988494;27;96756;-63
2023/08/03 08:09:25;;;;;;;3.83;0.52;;;23.50;79.80;23.90;98968.00;;;;4989185;27;121473;-64
2023/08/03 08:11:51;;;;;;;1.35;0.52;;;23.60;79.90;24.00;98972.00;;;;4990399;27;88733;-64
2023/08/03 08:14:17;;;;;;;1.08;0.30;;;23.70;79.00;23.90;98966.00;;;;4992479;27;87487;-64
2023/08/03 08:16:42;;;;;;;0.73;0.55;;;23.70;77.40;23.80;98954.00;;;;4987713;27;107702;-63
2023/08/03 08:19:08;;;;;;;0.88;0.50;;;23.60;77.20;23.70;98983.00;;;;4987940;27;100215;-64
2023/08/03 08:21:34;;;;;;;1.27;0.50;;;23.50;78.30;23.60;98978.00;;;;4989002;27;117674;-63
2023/08/03 08:23:59;;;;;;;1.33;0.50;;;23.40;77.40;23.50;98981.00;;;;4986267;27;109873;-63
2023/08/03 08:26:25;;;;;;;1.58;0.63;;;23.40;78.50;23.50;98979.00;;;;4986809;27;106320;-63
2023/08/03 08:28:56;;;;;;;1.30;0.38;;;23.30;78.50;23.50;98979.00;;;;4991891;27;116886;-64
2023/08/03 08:31:23;;;;;;;0.82;0.40;;;23.30;77.60;23.50;99006.00;;;;4986841;27;87674;-64
2023/08/03 08:33:49;;;;;;;0.10;0.10;;;23.30;77.70;23.60;98997.00;;;;4989520;27;87980;-64
2023/08/03 08:36:15;;;;;;;1.17;0.40;;;23.40;76.80;23.80;98982.00;;;;4986266;27;107785;-63
2023/08/03 08:38:40;;;;;;;1.75;0.63;;;23.50;76.00;23.80;98977.00;;;;4986946;27;87800;-63
2023/08/03 08:41:06;;;;;;;1.30;0.70;;;23.60;75.70;23.90;98982.00;;;;4983604;27;117986;-64
2023/08/03 08:43:32;;;;;;;0.13;0.13;;;23.60;76.10;24.10;99001.00;;;;4986646;27;87487;-63
2023/08/03 08:45:58;;;;;;;0.20;0.20;;;23.80;76.10;24.30;99002.00;;;;4984376;27;109717;-64
2023/08/03 08:48:24;;;;;;;0.38;0.30;;;24.00;75.40;24.50;98996.00;;;;4987914;27;89330;-65
2023/08/03 08:50:50;;;;;;;0.17;0.17;;;24.10;73.40;24.50;98996.00;;;;4991688;27;114685;-64
2023/08/03 08:53:16;;;;;;;0.25;0.25;;;24.30;72.90;24.50;99000.00;;;;4992703;27;87131;-65
2023/08/03 08:55:42;;;;;;;1.08;0.55;;;24.30;72.40;24.50;99019.00;;;;4993698;27;87735;-65
2023/08/03 08:58:08;;;;;;;0.57;0.20;;;24.40;72.50;24.50;99008.00;;;;4989238;27;87753;-64
2023/08/03 09:00:43;;;;;;;1.98;0.63;;;24.30;72.10;24.50;99023.00;;;;4991800;27;115988;-65
2023/08/03 09:03:09;;;;;;;0.65;0.22;;;24.30;71.80;24.50;99026.00;;;;4991966;27;87459;-64
2023/08/03 09:05:36;;;;;;;0.10;0.10;;;24.20;71.40;24.50;99016.00;;;;4988211;27;87940;-65
2023/08/03 09:08:18;;;;;;;0.57;0.50;;;24.30;70.40;24.50;99033.00;;;;4987677;27;88229;-67
2023/08/03 09:10:55;;;;;;;0.30;0.20;;;24.30;71.00;24.60;99030.00;;;;4990057;27;88384;-64
2023/08/03 09:13:35;;;;;;;2.65;0.57;;;24.30;71.80;24.80;99034.00;;;;4989022;27;87941;-65
2023/08/03 09:16:01;;;;;;;0.30;0.30;;;24.50;70.40;24.90;99030.00;;;;4997479;27;89248;-65
2023/08/03 09:18:30;;;;;;;0.20;0.20;;;24.60;69.80;25.10;99032.00;;;;4992681;27;107043;-66
2023/08/03 09:21:16;;;;;;;0.20;0.20;;;24.80;69.80;25.20;99042.00;;;;4988331;27;91158;-65
2023/08/03 09:23:42;;;;;;;1.90;0.63;;;24.90;69.00;25.20;99036.00;;;;4991136;27;87737;-64
2023/08/03 09:26:09;;;;;;;1.58;0.68;;;24.90;67.00;25.10;99034.00;;;;4993058;27;107500;-64
2023/08/03 09:28:35;;;;;;;2.03;0.40;;;24.90;66.90;25.20;99036.00;;;;4994248;27;89513;-65
2023/08/03 09:31:01;;;;;;;0.65;0.63;;;24.90;66.50;25.00;99062.00;;;;4991222;27;89082;-63
2023/08/03 09:33:27;;;;;;;0.40;0.30;;;24.90;66.50;24.80;99055.00;;;;4991392;27;88267;-65
2023/08/03 09:36:11;;;;;;;0.47;0.20;;;24.60;66.90;24.50;99048.00;;;;4992179;27;88245;-65
2023/08/03 09:38:41;;;;;;;3.83;0.52;;;24.40;66.90;24.30;99052.00;;;;4989974;28;88486;-65
2023/08/03 09:41:08;;;;;;;0.77;0.40;;;24.20;68.60;24.20;99058.00;;;;4986811;27;118108;-66
2023/08/03 09:43:34;;;;;;;0.40;0.38;;;24.10;69.20;24.20;99063.00;;;;4995230;27;87952;-65
2023/08/03 09:46:01;;;;;;;0.40;0.40;;;24.00;69.80;24.30;99065.00;;;;4990997;28;88210;-65
2023/08/03 09:48:27;;;;;;;0.95;0.52;;;24.00;70.30;24.50;99085.00;;;;4985792;28;90597;-65
2023/08/03 09:50:56;;;;;;;1.20;0.65;;;24.10;69.80;24.40;99068.00;;;;4972618;28;89081;-64
2023/08/03 09:53:26;;;;;;;0.10;0.10;;;24.20;68.90;24.30;99070.00;;;;4993283;27;87958;-65
2023/08/03 09:55:58;;;;;;;0.60;0.57;;;24.20;68.30;24.30;99068.00;;;;4994944;27;88001;-64
2023/08/03 09:58:38;;;;;;;0.10;0.10;;;23.90;68.70;24.30;99066.00;;;;4990408;27;87828;-64
2023/08/03 10:01:08;;;;;;;0.50;0.32;;;24.10;69.30;24.20;99048.00;;;;4990294;27;88278;-65
2023/08/03 10:03:35;;;;;;;0.43;0.40;;;24.00;69.40;24.20;99062.00;;;;4988697;27;87933;-64
2023/08/03 10:06:11;;;;;;;0.57;0.30;;;24.00;69.70;24.10;99059.00;;;;4991012;27;87684;-64
2023/08/03 10:08:48;;;;;;;1.05;0.30;;;23.90;69.50;24.00;99078.00;;;;4975193;28;87416;-64
2023/08/03 10:11:14;;;;;;;6.28;0.65;;;23.90;69.30;23.90;99076.00;;;;4990417;27;87862;-66
2023/08/03 10:13:47;;;;;;;0.55;0.55;;;23.80;69.20;23.80;99083.00;;;;4989455;27;110470;-65
2023/08/03 10:16:16;;;;;;;0.20;0.20;;;23.70;69.90;23.70;99082.00;;;;4990447;27;88901;-65
2023/08/03 10:18:43;;;;;;;0.98;0.25;;;23.40;70.10;23.80;99076.00;;;;4990562;27;88827;-66
2023/08/03 10:21:10;;;;;;;0.45;0.35;;;23.50;70.80;23.80;99079.00;;;;4994280;27;87998;-66
2023/08/03 10:23:38;;;;;;;0.10;0.10;;;23.50;70.60;23.80;99094.00;;;;4993675;27;109651;-67
2023/08/03 10:26:08;;;;;;;3.03;0.35;;;23.60;71.60;23.70;99095.00;;;;4990984;27;87913;-66
2023/08/03 10:28:40;;;;;;;0.55;0.40;;;23.50;70.00;23.60;99097.00;;;;4990853;27;88598;-64
2023/08/03 10:31:19;;;;;;;1.02;0.30;;;23.40;70.50;23.60;99115.00;;;;4987822;27;87603;-67
2023/08/03 10:33:51;;;;;;;0.17;0.17;;;23.40;71.40;23.60;99101.00;;;;4994793;27;86738;-65
2023/08/03 10:36:29;;;;;;;0.70;0.50;;;23.30;71.70;23.60;99090.00;;;;4988523;27;88191;-65
2023/08/03 10:38:56;;;;;;;2.72;0.30;;;23.40;71.80;23.70;99090.00;;;;4989992;27;87685;-66
2023/08/03 10:41:49;;;;;;;0.77;0.45;;;23.40;71.40;23.70;99105.00;;;;4990135;27;94484;-66
2023/08/03 10:44:14;;;;;;;0.35;0.28;;;23.40;71.10;23.60;99083.00;;;;4991514;27;88000;-66
2023/08/03 10:46:49;;;;;;;0.30;0.30;;;23.40;70.40;23.50;99102.00;;;;4990195;27;87734;-65
2023/08/03 10:49:17;;;;;;;0.13;0.13;;;23.30;71.50;23.40;99110.00;;;;4988021;27;88071;-66